createdAt,value
2022-08-14T00:02:13.730Z,19.10
2022-08-14T00:04:41.929Z,19.01
2022-08-14T00:07:14.146Z,19.20
2022-08-14T00:10:02.457Z,19.75
2022-08-14T00:12:37.787Z,19.77
2022-08-14T00:15:21.756Z,19.55
2022-08-14T00:17:53.645Z,19.32
2022-08-14T00:20:31.191Z,19.17
2022-08-14T00:23:12.120Z,19.08
2022-08-14T00:25:58.746Z,18.98
2022-08-14T00:28:36.902Z,18.98
2022-08-14T00:31:09.737Z,19.13
2022-08-14T00:33:52.186Z,19.10
2022-08-14T00:36:37.543Z,19.36
2022-08-14T00:39:18.155Z,19.87
2022-08-14T00:41:45.959Z,19.94
2022-08-14T00:44:12.612Z,20.08
2022-08-14T00:46:41.042Z,20.12
2022-08-14T00:49:11.576Z,20.35
2022-08-14T00:51:44.205Z,20.27
2022-08-14T00:54:21.197Z,20.08
2022-08-14T00:57:05.340Z,19.89
2022-08-14T00:59:32.160Z,19.75
2022-08-14T01:02:00.626Z,19.58
2022-08-14T01:04:51.578Z,19.35
2022-08-14T01:07:21.883Z,19.16
2022-08-14T01:09:54.565Z,19.05
2022-08-14T01:12:27.158Z,18.90
2022-08-14T01:14:58.485Z,18.72
2022-08-14T01:17:49.582Z,18.56
2022-08-14T01:20:40.678Z,18.71
2022-08-14T01:23:15.670Z,18.83
2022-08-14T01:25:45.965Z,18.65
2022-08-14T01:28:34.448Z,18.72
2022-08-14T01:31:15.701Z,18.75
2022-08-14T01:33:59.880Z,18.63
2022-08-14T01:36:42.353Z,18.55
2022-08-14T01:39:15.440Z,18.40
2022-08-14T01:41:50.032Z,18.56
2022-08-14T01:44:31.237Z,18.31
2022-08-14T01:47:12.155Z,18.13
2022-08-14T01:49:46.015Z,18.01
2022-08-14T01:52:34.096Z,17.92
2022-08-14T01:55:16.827Z,17.95
2022-08-14T01:58:00.653Z,17.90
2022-08-14T02:00:38.823Z,17.74
2022-08-14T02:03:06.839Z,17.70
2022-08-14T02:05:38.550Z,17.71
2022-08-14T02:08:10.481Z,17.63
2022-08-14T02:10:46.021Z,17.63
2022-08-14T02:13:13.962Z,17.65
2022-08-14T02:15:43.854Z,17.56
2022-08-14T02:18:11.804Z,17.47
2022-08-14T02:20:42.220Z,17.43
2022-08-14T02:23:09.381Z,17.53
2022-08-14T02:25:39.460Z,17.60
2022-08-14T02:28:22.114Z,17.77
2022-08-14T02:30:52.977Z,17.77
2022-08-14T02:33:20.600Z,17.76
2022-08-14T02:36:04.915Z,17.82
2022-08-14T02:38:42.252Z,17.73
2022-08-14T02:41:13.127Z,17.64
2022-08-14T02:43:46.349Z,17.49
2022-08-14T02:46:20.371Z,17.30
2022-08-14T02:49:04.770Z,17.20
2022-08-14T02:51:36.412Z,17.16
2022-08-14T02:54:05.271Z,17.25
2022-08-14T02:57:13.815Z,17.78
2022-08-14T02:59:33.501Z,17.74
2022-08-14T03:02:49.085Z,18.17
2022-08-14T03:04:57.872Z,18.63
2022-08-14T03:07:25.921Z,19.20
2022-08-14T03:10:28.068Z,19.27
2022-08-14T03:12:47.818Z,19.24
2022-08-14T03:15:22.166Z,19.30
2022-08-14T03:17:57.470Z,19.52
2022-08-14T03:20:29.018Z,19.59
2022-08-14T03:23:03.199Z,19.57
2022-08-14T03:25:33.419Z,19.38
2022-08-14T03:28:07.046Z,19.08
2022-08-14T03:30:39.714Z,18.93
2022-08-14T03:33:10.415Z,18.83
2022-08-14T03:35:39.732Z,18.78
2022-08-14T03:39:16.102Z,18.72
2022-08-14T03:40:56.833Z,18.61
2022-08-14T03:43:28.362Z,18.52
2022-08-14T03:46:00.411Z,18.41
2022-08-14T03:48:31.287Z,18.38
2022-08-14T03:51:09.159Z,18.49
2022-08-14T03:53:41.878Z,18.65
2022-08-14T03:56:18.064Z,18.93
2022-08-14T03:58:52.747Z,18.86
2022-08-14T04:01:21.455Z,18.68
2022-08-14T04:03:49.553Z,18.44
2022-08-14T04:06:22.102Z,18.19
2022-08-14T04:08:55.194Z,17.95
2022-08-14T04:11:24.985Z,17.83
2022-08-14T04:13:52.211Z,17.61
2022-08-14T04:16:21.155Z,17.37
2022-08-14T04:18:52.890Z,17.29
2022-08-14T04:21:24.486Z,17.25
2022-08-14T04:23:57.255Z,17.09
2022-08-14T04:26:42.854Z,16.99
2022-08-14T04:29:15.149Z,16.98
2022-08-14T04:33:00.980Z,16.97
2022-08-14T04:34:33.987Z,17.03
2022-08-14T04:37:24.584Z,17.17
2022-08-14T04:40:11.375Z,18.24
2022-08-14T04:42:56.755Z,19.25
2022-08-14T04:45:25.086Z,19.80
2022-08-14T04:48:12.698Z,20.35
2022-08-14T04:50:53.947Z,20.62
2022-08-14T04:53:34.899Z,20.96
2022-08-14T04:56:33.861Z,21.49
2022-08-14T04:58:57.966Z,21.77
2022-08-14T05:01:28.242Z,21.99
2022-08-14T05:03:55.991Z,22.32
2022-08-14T05:06:39.103Z,22.21
2022-08-14T05:09:16.336Z,22.37
2022-08-14T05:11:44.596Z,22.40
2022-08-14T05:14:33.724Z,22.75
2022-08-14T05:17:02.235Z,23.30
2022-08-14T05:19:32.468Z,23.22
2022-08-14T05:22:17.099Z,23.47
2022-08-14T05:24:51.994Z,23.44
2022-08-14T05:27:22.249Z,23.38
2022-08-14T05:29:50.892Z,23.27
2022-08-14T05:32:17.853Z,23.65
2022-08-14T05:34:45.572Z,23.77
2022-08-14T05:37:15.697Z,24.01
2022-08-14T05:39:43.410Z,24.33
2022-08-14T05:42:21.603Z,24.56
2022-08-14T05:44:49.390Z,24.96
2022-08-14T05:47:18.579Z,24.98
2022-08-14T05:49:46.021Z,25.00
2022-08-14T05:52:18.198Z,25.06
2022-08-14T05:54:45.032Z,25.22
2022-08-14T05:57:11.661Z,25.68
2022-08-14T05:59:38.935Z,25.53
2022-08-14T06:02:11.193Z,25.74
2022-08-14T06:04:39.476Z,25.28
2022-08-14T06:07:06.826Z,25.67
2022-08-14T06:09:35.473Z,26.14
2022-08-14T06:12:08.693Z,25.84
2022-08-14T06:14:36.577Z,25.78
2022-08-14T06:17:04.481Z,25.89
2022-08-14T06:19:37.074Z,25.66
2022-08-14T06:22:04.145Z,26.27
2022-08-14T06:24:34.964Z,26.25
2022-08-14T06:27:10.035Z,25.78
2022-08-14T06:29:38.323Z,25.60
2022-08-14T06:32:38.573Z,26.20
2022-08-14T06:35:02.225Z,26.67
2022-08-14T06:37:54.221Z,26.49
2022-08-14T06:40:29.744Z,26.97
2022-08-14T06:43:06.897Z,26.49
2022-08-14T06:45:36.217Z,26.23
2022-08-14T06:48:06.026Z,26.07
2022-08-14T06:50:47.515Z,26.22
2022-08-14T06:53:16.430Z,25.85
2022-08-14T06:55:57.855Z,26.21
2022-08-14T06:58:29.414Z,26.06
2022-08-14T07:01:26.829Z,26.00
2022-08-14T07:04:23.212Z,26.03
2022-08-14T07:07:02.731Z,25.76
2022-08-14T07:09:43.691Z,25.82
2022-08-14T07:12:54.420Z,25.90
2022-08-14T07:15:06.403Z,26.10
2022-08-14T07:17:34.389Z,26.18
2022-08-14T07:20:07.329Z,26.32
2022-08-14T07:22:56.134Z,26.05
2022-08-14T07:25:21.180Z,26.40
2022-08-14T07:27:47.964Z,26.56
2022-08-14T07:30:33.745Z,26.30
2022-08-14T07:33:05.054Z,26.49
2022-08-14T07:35:37.510Z,26.69
2022-08-14T07:38:21.836Z,26.43
2022-08-14T07:40:56.885Z,26.73
2022-08-14T07:43:24.898Z,26.63
2022-08-14T07:45:54.009Z,26.80
2022-08-14T07:48:26.549Z,26.62
2022-08-14T07:50:57.222Z,26.74
2022-08-14T07:54:04.681Z,26.49
2022-08-14T07:56:46.592Z,26.22
2022-08-14T07:59:20.968Z,26.49
2022-08-14T08:02:17.385Z,26.81
2022-08-14T08:04:58.996Z,26.59
2022-08-14T08:07:33.093Z,26.84
2022-08-14T08:10:02.329Z,26.41
2022-08-14T08:12:30.927Z,26.42
2022-08-14T08:15:07.404Z,26.26
2022-08-14T08:17:42.492Z,26.69
2022-08-14T08:20:26.285Z,26.35
2022-08-14T08:23:00.545Z,26.25
2022-08-14T08:25:39.727Z,26.17
2022-08-14T08:28:21.872Z,26.21
2022-08-14T08:30:56.832Z,26.21
2022-08-14T08:33:37.117Z,26.26
2022-08-14T08:36:07.942Z,26.23
2022-08-14T08:39:16.369Z,26.09
2022-08-14T08:41:21.723Z,26.04
2022-08-14T08:43:48.625Z,26.03
2022-08-14T08:46:23.465Z,26.36
2022-08-14T08:51:36.064Z,26.58
2022-08-14T08:54:18.139Z,26.25
2022-08-14T08:56:52.052Z,26.54
2022-08-14T08:59:33.974Z,26.55
2022-08-14T09:02:07.245Z,26.67
2022-08-14T09:04:45.873Z,26.47
2022-08-14T09:07:27.323Z,26.58
2022-08-14T09:09:58.966Z,26.68
2022-08-14T09:12:32.391Z,26.61
2022-08-14T09:15:12.138Z,26.77
2022-08-14T09:17:41.446Z,26.92
2022-08-14T09:20:11.648Z,27.25
2022-08-14T09:22:50.309Z,26.91
2022-08-14T09:26:00.745Z,27.00
2022-08-14T09:28:12.752Z,26.71
2022-08-14T09:30:46.720Z,26.87
2022-08-14T09:33:31.807Z,26.98
2022-08-14T09:36:37.288Z,26.91
2022-08-14T09:39:28.399Z,27.00
2022-08-14T09:42:20.246Z,26.78
2022-08-14T09:45:08.790Z,27.09
2022-08-14T09:47:57.329Z,27.02
2022-08-14T09:50:30.175Z,27.13
2022-08-14T09:53:05.820Z,27.27
2022-08-14T09:55:45.343Z,27.04
2022-08-14T09:58:22.869Z,27.14
2022-08-14T10:01:00.692Z,27.14
2022-08-14T10:03:34.750Z,27.25
2022-08-14T10:06:08.904Z,27.20
2022-08-14T10:08:50.614Z,27.40
2022-08-14T10:11:35.942Z,27.48
2022-08-14T10:14:29.493Z,27.25
2022-08-14T10:17:05.256Z,27.03
2022-08-14T10:19:35.654Z,27.14
2022-08-14T10:23:21.945Z,27.37
2022-08-14T10:24:59.849Z,27.18
2022-08-14T10:27:28.026Z,26.91
2022-08-14T10:29:59.902Z,27.08
2022-08-14T10:32:36.211Z,26.87
2022-08-14T10:35:10.947Z,26.88
2022-08-14T10:37:51.689Z,27.16
2022-08-14T10:40:37.810Z,27.69
2022-08-14T10:43:23.016Z,27.56
2022-08-14T10:46:03.627Z,27.39
2022-08-14T10:49:04.339Z,27.59
2022-08-14T10:51:36.235Z,27.84
2022-08-14T10:54:17.088Z,27.89
2022-08-14T10:56:55.884Z,27.89
2022-08-14T10:59:34.937Z,28.15
2022-08-14T11:02:03.918Z,28.17
2022-08-14T11:04:32.024Z,28.37
2022-08-14T11:07:00.280Z,28.29
2022-08-14T11:09:31.845Z,28.23
2022-08-14T11:12:35.051Z,28.00
2022-08-14T11:14:58.839Z,28.05
2022-08-14T11:17:28.639Z,28.29
2022-08-14T11:20:01.465Z,28.31
2022-08-14T11:22:52.791Z,28.23
2022-08-14T11:25:18.560Z,28.15
2022-08-14T11:27:53.954Z,28.53
2022-08-14T11:30:50.639Z,28.25
2022-08-14T11:33:23.442Z,28.43
2022-08-14T11:35:50.156Z,28.48
2022-08-14T11:38:18.098Z,28.40
2022-08-14T11:40:47.129Z,28.43
2022-08-14T11:43:15.132Z,28.56
2022-08-14T11:45:47.919Z,28.88
2022-08-14T11:49:03.373Z,29.02
2022-08-14T11:51:26.139Z,28.86
2022-08-14T11:54:02.326Z,28.92
2022-08-14T11:56:36.198Z,28.66
2022-08-14T11:59:02.912Z,28.51
2022-08-14T12:01:33.332Z,28.37
2022-08-14T12:04:31.748Z,28.70
2022-08-14T12:07:00.823Z,28.90
2022-08-14T12:09:38.730Z,28.85
2022-08-14T12:12:35.286Z,28.94
2022-08-14T12:15:04.390Z,29.23
2022-08-14T12:17:47.354Z,28.91
2022-08-14T12:20:16.028Z,28.93
2022-08-14T12:22:57.370Z,29.27
2022-08-14T12:25:24.784Z,29.04
2022-08-14T12:27:54.705Z,28.86
2022-08-14T12:30:43.903Z,29.00
2022-08-14T12:33:33.228Z,29.38
2022-08-14T12:36:04.098Z,28.83
2022-08-14T12:38:44.976Z,28.95
2022-08-14T12:41:20.254Z,29.17
2022-08-14T12:44:01.876Z,29.16
2022-08-14T12:46:35.227Z,29.12
2022-08-14T12:49:09.604Z,29.00
2022-08-14T12:51:37.813Z,29.11
2022-08-14T12:54:19.406Z,29.27
2022-08-14T12:57:19.765Z,29.32
2022-08-14T12:59:47.612Z,29.27
2022-08-14T13:02:25.282Z,29.06
2022-08-14T13:04:54.137Z,29.17
2022-08-14T13:07:20.877Z,28.88
2022-08-14T13:09:55.175Z,28.89
2022-08-14T13:12:32.165Z,29.05
2022-08-14T13:15:09.009Z,28.99
2022-08-14T13:17:43.966Z,29.15
2022-08-14T13:20:24.579Z,29.39
2022-08-14T13:22:53.100Z,29.21
2022-08-14T13:25:24.567Z,29.18
2022-08-14T13:27:59.100Z,29.13
2022-08-14T13:30:27.371Z,29.21
2022-08-14T13:32:58.040Z,29.01
2022-08-14T13:35:25.748Z,28.99
2022-08-14T13:37:54.003Z,29.21
2022-08-14T13:40:25.981Z,29.06
2022-08-14T13:42:56.727Z,29.08
2022-08-14T13:45:24.178Z,29.10
2022-08-14T13:48:01.385Z,29.22
2022-08-14T13:50:28.054Z,29.37
2022-08-14T13:52:57.288Z,29.25
2022-08-14T13:55:29.931Z,29.11
2022-08-14T13:58:04.496Z,28.86
2022-08-14T14:00:51.773Z,28.84
2022-08-14T14:03:22.369Z,28.60
2022-08-14T14:05:54.863Z,28.48
2022-08-14T14:08:43.491Z,28.41
2022-08-14T14:11:10.588Z,28.40
2022-08-14T14:13:44.775Z,28.54
2022-08-14T14:16:15.332Z,28.89
2022-08-14T14:18:55.760Z,28.92
2022-08-14T14:21:24.503Z,29.35
2022-08-14T14:23:56.247Z,29.61
2022-08-14T14:26:24.668Z,29.58
2022-08-14T14:28:55.328Z,29.40
2022-08-14T14:31:29.921Z,29.42
2022-08-14T14:33:59.906Z,29.48
2022-08-14T14:36:29.127Z,29.56
2022-08-14T14:38:58.053Z,29.73
2022-08-14T14:41:27.182Z,29.77
2022-08-14T14:44:06.661Z,29.58
2022-08-14T14:46:38.399Z,29.60
2022-08-14T14:49:14.238Z,29.71
2022-08-14T14:51:46.672Z,29.69
2022-08-14T14:54:19.521Z,29.73
2022-08-14T14:56:59.825Z,29.67
2022-08-14T14:59:27.226Z,29.85
2022-08-14T15:02:00.376Z,29.99
2022-08-14T15:04:27.082Z,30.24
2022-08-14T15:06:54.045Z,30.02
2022-08-14T15:09:23.803Z,30.22
2022-08-14T15:11:50.821Z,30.10
2022-08-14T15:14:56.202Z,30.09
2022-08-14T15:17:06.441Z,30.12
2022-08-14T15:19:33.415Z,30.32
2022-08-14T15:22:00.339Z,30.62
2022-08-14T15:24:27.298Z,30.65
2022-08-14T15:26:58.479Z,30.78
2022-08-14T15:29:30.359Z,30.46
2022-08-14T15:31:58.342Z,30.31
2022-08-14T15:34:45.498Z,30.24
2022-08-14T15:37:16.803Z,30.36
2022-08-14T15:39:44.294Z,30.39
2022-08-14T15:42:16.220Z,30.11
2022-08-14T15:44:58.512Z,30.14
2022-08-14T15:47:30.813Z,30.05
2022-08-14T15:50:05.582Z,29.82
2022-08-14T15:52:37.143Z,29.99
2022-08-14T15:55:08.996Z,29.90
2022-08-14T15:57:38.179Z,29.89
2022-08-14T16:00:40.656Z,29.94
2022-08-14T16:03:15.847Z,29.94
2022-08-14T16:05:43.997Z,30.01
2022-08-14T16:08:27.380Z,29.88
2022-08-14T16:11:01.924Z,29.73
2022-08-14T16:13:39.344Z,29.83
2022-08-14T16:16:34.769Z,29.65
2022-08-14T16:19:09.993Z,29.56
2022-08-14T16:21:39.988Z,29.75
2022-08-14T16:24:27.688Z,30.01
2022-08-14T16:27:00.564Z,30.06
2022-08-14T16:29:30.239Z,30.18
2022-08-14T16:32:01.572Z,30.08
2022-08-14T16:37:18.511Z,30.01
2022-08-14T16:39:46.864Z,29.93
2022-08-14T16:40:25.408Z,30.11
2022-08-14T16:43:02.232Z,29.96
2022-08-14T16:45:02.655Z,29.78
2022-08-14T16:47:32.155Z,29.65
2022-08-14T16:50:08.445Z,29.64
2022-08-14T16:52:44.305Z,29.56
2022-08-14T16:55:13.984Z,29.51
2022-08-14T16:57:52.073Z,29.52
2022-08-14T17:00:43.493Z,29.57
2022-08-14T17:03:12.308Z,29.21
2022-08-14T17:05:43.265Z,29.24
2022-08-14T17:08:33.330Z,29.18
2022-08-14T17:11:10.880Z,28.93
2022-08-14T17:13:58.121Z,29.09
2022-08-14T17:16:38.293Z,28.87
2022-08-14T17:19:13.780Z,29.01
2022-08-14T17:21:47.546Z,28.85
2022-08-14T17:24:57.594Z,28.74
2022-08-14T17:27:05.038Z,28.80
2022-08-14T17:29:56.747Z,28.83
2022-08-14T17:32:29.740Z,28.39
2022-08-14T17:35:16.409Z,28.26
2022-08-14T17:37:55.449Z,27.92
2022-08-14T17:40:25.954Z,27.83
2022-08-14T17:43:02.229Z,27.58
2022-08-14T17:45:41.685Z,27.50
2022-08-14T17:49:10.031Z,27.24
2022-08-14T17:51:23.742Z,26.92
2022-08-14T17:54:01.236Z,26.76
2022-08-14T17:56:38.744Z,26.52
2022-08-14T17:59:06.955Z,26.46
2022-08-14T18:01:45.909Z,26.34
2022-08-14T18:04:27.874Z,26.18
2022-08-14T18:07:08.645Z,26.17
2022-08-14T18:09:56.219Z,26.07
2022-08-14T18:12:36.847Z,26.15
2022-08-14T18:15:14.382Z,26.05
2022-08-14T18:17:44.944Z,25.97
2022-08-14T18:21:41.265Z,26.02
2022-08-14T18:23:10.504Z,26.32
2022-08-14T18:25:52.347Z,26.56
2022-08-14T18:28:51.655Z,26.45
2022-08-14T18:31:23.300Z,26.29
2022-08-14T18:34:31.774Z,26.56
2022-08-14T18:37:18.338Z,26.33
2022-08-14T18:40:01.830Z,26.33
2022-08-14T18:42:33.320Z,26.15
2022-08-14T18:45:01.929Z,25.90
2022-08-14T18:48:03.304Z,25.61
2022-08-14T18:50:26.857Z,25.42
2022-08-14T18:53:06.965Z,25.19
2022-08-14T18:55:33.696Z,25.04
2022-08-14T18:58:00.953Z,24.97
2022-08-14T19:00:32.048Z,24.96
2022-08-14T19:03:01.140Z,24.91
2022-08-14T19:05:37.858Z,25.15
2022-08-14T19:08:27.132Z,25.07
2022-08-14T19:10:59.473Z,25.05
2022-08-14T19:13:48.685Z,25.01
2022-08-14T19:16:22.914Z,25.10
2022-08-14T19:19:01.319Z,24.96
2022-08-14T19:21:29.893Z,24.96
2022-08-14T19:24:30.261Z,24.97
2022-08-14T19:27:19.256Z,25.09
2022-08-14T19:29:51.751Z,25.09
2022-08-14T19:32:41.620Z,24.94
2022-08-14T19:35:18.532Z,24.85
2022-08-14T19:37:53.883Z,24.79
2022-08-14T19:40:38.482Z,24.87
2022-08-14T19:43:06.719Z,24.80
2022-08-14T19:45:36.900Z,24.72
2022-08-14T19:48:04.830Z,24.74
2022-08-14T19:50:40.792Z,24.73
2022-08-14T19:53:12.074Z,24.71
2022-08-14T19:55:47.241Z,24.63
2022-08-14T19:58:15.318Z,24.64
2022-08-14T20:00:52.471Z,24.47
2022-08-14T20:03:23.825Z,24.43
2022-08-14T20:06:03.178Z,24.49
2022-08-14T20:09:06.032Z,24.38
2022-08-14T20:12:00.406Z,24.28
2022-08-14T20:14:20.388Z,24.16
2022-08-14T20:16:52.300Z,24.17
2022-08-14T20:19:29.035Z,24.25
2022-08-14T20:22:04.772Z,24.29
2022-08-14T20:24:43.986Z,24.30
2022-08-14T20:27:23.425Z,24.38
2022-08-14T20:30:29.553Z,24.39
2022-08-14T20:33:07.844Z,24.26
2022-08-14T20:35:41.660Z,24.24
2022-08-14T20:38:28.999Z,24.22
2022-08-14T20:41:00.325Z,24.25
2022-08-14T20:43:47.657Z,24.38
2022-08-14T20:46:23.550Z,24.50
2022-08-14T20:49:06.407Z,24.97
2022-08-14T20:51:43.345Z,24.82
2022-08-14T20:54:21.126Z,24.81
2022-08-14T20:57:10.081Z,24.42
2022-08-14T20:59:43.533Z,24.22
2022-08-14T21:02:34.568Z,24.06
2022-08-14T21:05:16.324Z,23.94
2022-08-14T21:07:44.484Z,24.22
2022-08-14T21:10:33.549Z,24.15
2022-08-14T21:14:08.815Z,24.25
2022-08-14T21:15:57.859Z,24.17
2022-08-14T21:18:34.562Z,24.21
2022-08-14T21:21:07.703Z,24.51
2022-08-14T21:23:54.058Z,24.69
2022-08-14T21:26:51.403Z,25.06
2022-08-14T21:29:11.425Z,25.51
2022-08-14T21:31:39.042Z,25.53
2022-08-14T21:34:31.626Z,25.47
2022-08-14T21:36:58.599Z,25.32
2022-08-14T21:39:25.335Z,25.22
2022-08-14T21:41:58.491Z,25.46
2022-08-14T21:44:42.896Z,25.30
2022-08-14T21:47:16.120Z,25.22
2022-08-14T21:49:46.127Z,25.06
2022-08-14T21:52:52.167Z,24.98
2022-08-14T21:55:12.202Z,25.03
2022-08-14T21:57:56.323Z,25.21
2022-08-14T22:00:42.004Z,25.22
2022-08-14T22:03:17.130Z,25.34
2022-08-14T22:05:49.611Z,25.34
2022-08-14T22:08:16.829Z,25.36
2022-08-14T22:10:47.886Z,25.33
2022-08-14T22:13:20.865Z,25.40
2022-08-14T22:15:49.764Z,25.39
2022-08-14T22:18:20.575Z,25.47
2022-08-14T22:20:53.510Z,25.49
2022-08-14T22:23:21.630Z,25.39
2022-08-14T22:25:50.141Z,25.25
2022-08-14T22:28:21.266Z,24.99
2022-08-14T22:30:55.154Z,25.17
2022-08-14T22:33:26.614Z,25.17
2022-08-14T22:35:58.995Z,24.94
2022-08-14T22:38:35.850Z,24.82
2022-08-14T22:41:27.540Z,24.92
2022-08-14T22:43:54.738Z,24.84
2022-08-14T22:46:22.127Z,24.53
2022-08-14T22:48:51.239Z,24.60
2022-08-14T22:51:20.557Z,24.72
2022-08-14T22:53:48.701Z,24.88
2022-08-14T22:56:20.319Z,24.84
2022-08-14T22:58:53.800Z,24.45
2022-08-14T23:01:56.293Z,24.36
2022-08-14T23:04:35.930Z,24.49
2022-08-14T23:07:22.261Z,24.49
2022-08-14T23:10:32.999Z,24.25
2022-08-14T23:12:54.759Z,24.39
2022-08-14T23:15:23.937Z,24.37
2022-08-14T23:17:51.274Z,24.64
2022-08-14T23:20:21.294Z,24.58
2022-08-14T23:22:51.642Z,24.60
2022-08-14T23:25:56.973Z,24.74
2022-08-14T23:28:33.633Z,25.03
2022-08-14T23:30:55.471Z,25.15
2022-08-14T23:33:22.248Z,25.18
2022-08-14T23:35:59.039Z,25.27
2022-08-14T23:38:30.830Z,25.21
2022-08-14T23:41:00.643Z,25.14
2022-08-14T23:43:31.285Z,25.01
2022-08-14T23:45:58.924Z,24.92
2022-08-14T23:48:28.413Z,25.16
2022-08-14T23:50:55.760Z,24.60
2022-08-14T23:53:47.653Z,24.22
2022-08-14T23:56:19.878Z,24.31
2022-08-14T23:58:59.509Z,24.37
